Time;durP1;ratioP1;P1;durP2;ratioP2;P2;SDS_P1;SDS_P2;PMS_P1;PMS_P2;Temp;Humidity;BMP_temperature;BMP_pressure;BME280_temperature;BME280_humidity;BME280_pressure;Samples;Min_cycle;Max_cycle;Signal;HPM_P1;HPM_P2
2022/08/22 17:32:30;;;;;;;;;1.00;1.00;;;;;;;;5118786;27;1460979;-71
2022/08/22 17:35:01;;;;;;;;;1.00;1.00;;;;;;;;5156833;27;20373;-71
2022/08/22 17:37:44;;;;;;;;;1.00;1.00;;;;;;;;5158006;27;8813;-72
2022/08/22 17:40:28;;;;;;;;;1.50;1.50;;;;;;;;5157326;27;8754;-72
2022/08/22 17:43:12;;;;;;;;;2.00;1.00;;;;;;;;5157042;27;8770;-72
2022/08/22 17:45:37;;;;;;;;;1.00;1.00;;;;;;;;5157432;27;11361;-72
2022/08/22 17:48:25;;;;;;;;;1.00;1.00;;;;;;;;5157228;27;8782;-70
2022/08/22 17:51:01;;;;;;;;;1.00;1.00;;;;;;;;5156710;27;8790;-70
2022/08/22 17:53:45;;;;;;;;;3.00;2.00;;;;;;;;5157440;27;8923;-70
2022/08/22 17:56:19;;;;;;;;;3.00;2.00;;;;;;;;5156507;27;8825;-70
2022/08/22 17:58:52;;;;;;;;;0.50;0.50;;;;;;;;5156651;27;8759;-70
2022/08/22 18:01:36;;;;;;;;;0.00;0.00;;;;;;;;5156892;27;11436;-70
2022/08/22 18:04:04;;;;;;;;;1.00;1.00;;;;;;;;5157133;27;8796;-70
2022/08/22 18:06:32;;;;;;;;;2.00;2.00;;;;;;;;5156411;27;8758;-71
2022/08/22 18:09:04;;;;;;;;;0.00;0.00;;;;;;;;5156634;27;8861;-71
2022/08/22 18:11:33;;;;;;;;;1.25;1.00;;;;;;;;5156667;27;8832;-71
2022/08/22 18:13:59;;;;;;;;;2.25;1.00;;;;;;;;5156203;27;10751;-71
2022/08/22 18:16:33;;;;;;;;;2.00;2.00;;;;;;;;5156406;27;8794;-71
2022/08/22 18:19:21;;;;;;;;;1.25;1.00;;;;;;;;5156164;27;9716;-71
2022/08/22 18:21:47;;;;;;;;;2.00;2.00;;;;;;;;5090346;27;10743;-71
2022/08/22 18:24:12;;;;;;;;;2.00;2.00;;;;;;;;5156524;27;10439;-72
2022/08/22 18:26:40;;;;;;;;;8.67;7.00;;;;;;;;5156608;27;8805;-71
2022/08/22 18:29:24;;;;;;;;;3.00;3.00;;;;;;;;5156605;27;10342;-71
2022/08/22 18:31:59;;;;;;;;;3.00;3.00;;;;;;;;5155815;27;10841;-71
2022/08/22 18:34:30;;;;;;;;;2.50;2.00;;;;;;;;5155442;27;8809;-71
2022/08/22 18:37:05;;;;;;;;;2.00;2.00;;;;;;;;5155691;27;10432;-71
2022/08/22 18:39:35;;;;;;;;;2.50;2.50;;;;;;;;5137078;27;9619;-73
2022/08/22 18:42:19;;;;;;;;;4.00;3.00;;;;;;;;5153685;27;9502;-76
2022/08/22 18:44:45;;;;;;;;;3.50;3.50;;;;;;;;5139572;27;11913;-76
2022/08/22 18:47:15;;;;;;;;;3.00;3.00;;;;;;;;5142096;27;12474;-75
2022/08/22 18:49:44;;;;;;;;;3.00;2.00;;;;;;;;5142514;27;10958;-75
2022/08/22 18:52:24;;;;;;;;;1.25;1.25;;;;;;;;5139129;27;8787;-75
2022/08/22 18:55:08;;;;;;;;;2.00;2.00;;;;;;;;5141752;27;11562;-77
2022/08/22 18:57:43;;;;;;;;;4.25;3.00;;;;;;;;5141549;27;11381;-74
2022/08/22 19:00:15;;;;;;;;;2.75;2.75;;;;;;;;5142001;27;10364;-79
2022/08/22 19:03:02;;;;;;;;;4.50;4.50;;;;;;;;5141746;27;11407;-73
2022/08/22 19:05:27;;;;;;;;;1.25;0.00;;;;;;;;5087177;27;11563;-73
2022/08/22 19:07:59;;;;;;;;;4.33;4.00;;;;;;;;5142532;27;11293;-75
2022/08/22 19:10:30;;;;;;;;;12.75;12.25;;;;;;;;5122920;27;11628;-74
2022/08/22 19:13:01;;;;;;;;;4.75;3.75;;;;;;;;5141358;27;22650;-74
2022/08/22 19:15:59;;;;;;;;;3.00;3.00;;;;;;;;5141790;27;22247;-72
2022/08/22 19:18:49;;;;;;;;;3.00;2.50;;;;;;;;5085441;27;11626;-72
2022/08/22 19:23:59;;;;;;;;;3.00;3.00;;;;;;;;5141907;27;10269;-72
2022/08/22 19:26:30;;;;;;;;;2.67;2.00;;;;;;;;5142100;27;11340;-75
2022/08/22 19:29:00;;;;;;;;;2.00;2.00;;;;;;;;5141672;27;10493;-72
2022/08/22 19:31:34;;;;;;;;;6.00;3.00;;;;;;;;5140864;27;8940;-74
2022/08/22 19:34:17;;;;;;;;;3.25;3.25;;;;;;;;5141549;27;8774;-75
2022/08/22 19:36:46;;;;;;;;;3.50;3.50;;;;;;;;5141786;27;11903;-73
2022/08/22 19:39:32;;;;;;;;;4.00;3.00;;;;;;;;5122564;27;9659;-72
2022/08/22 19:41:58;;;;;;;;;4.75;3.50;;;;;;;;5122803;27;11404;-71
2022/08/22 19:44:26;;;;;;;;;6.50;4.00;;;;;;;;5141934;27;9782;-72
2022/08/22 19:46:57;;;;;;;;;5.25;4.75;;;;;;;;5140428;27;11404;-70
2022/08/22 19:49:26;;;;;;;;;6.00;4.00;;;;;;;;5141680;27;11557;-72
2022/08/22 19:52:21;;;;;;;;;3.25;3.25;;;;;;;;5141341;27;11521;-72
2022/08/22 19:54:56;;;;;;;;;4.25;4.25;;;;;;;;5031609;27;11732;-71
2022/08/22 19:57:33;;;;;;;;;4.00;4.00;;;;;;;;5141858;27;8798;-71
2022/08/22 20:00:04;;;;;;;;;4.00;4.00;;;;;;;;5140699;27;8762;-72
2022/08/22 20:02:48;;;;;;;;;6.25;4.50;;;;;;;;5122713;27;8830;-72
2022/08/22 20:05:20;;;;;;;;;7.75;5.75;;;;;;;;5140901;27;11409;-71
2022/08/22 20:08:04;;;;;;;;;7.75;7.25;;;;;;;;5121316;27;11610;-71
2022/08/22 20:10:38;;;;;;;;;33.25;30.00;;;;;;;;5140901;27;8817;-71
2022/08/22 20:13:10;;;;;;;;;15.33;15.33;;;;;;;;5140761;27;22553;-72
2022/08/22 20:15:54;;;;;;;;;7.25;6.00;;;;;;;;5121256;27;13812;-72
2022/08/22 20:18:38;;;;;;;;;4.50;3.50;;;;;;;;5122238;27;24319;-72
2022/08/22 20:21:03;;;;;;;;;3.50;3.50;;;;;;;;5140869;27;11384;-72
2022/08/22 20:23:30;;;;;;;;;4.00;3.00;;;;;;;;5139770;27;8810;-73
2022/08/22 20:25:57;;;;;;;;;3.25;3.25;;;;;;;;5140640;27;11436;-73
2022/08/22 20:28:28;;;;;;;;;3.50;3.50;;;;;;;;5140571;27;11605;-73
2022/08/22 20:30:58;;;;;;;;;3.25;3.25;;;;;;;;5140760;27;8863;-72
2022/08/22 20:33:25;;;;;;;;;3.00;3.00;;;;;;;;5140586;27;9279;-73
2022/08/22 20:35:53;;;;;;;;;0.00;0.00;;;;;;;;5139463;27;9053;-74
2022/08/22 20:38:25;;;;;;;;;5.00;3.75;;;;;;;;5140913;27;9507;-73
2022/08/22 20:40:59;;;;;;;;;4.00;4.00;;;;;;;;5139887;27;11623;-73
2022/08/22 20:43:37;;;;;;;;;4.75;4.75;;;;;;;;5140722;27;11392;-74
2022/08/22 20:46:14;;;;;;;;;6.75;3.75;;;;;;;;5141338;27;8770;-73
2022/08/22 20:48:42;;;;;;;;;4.50;3.50;;;;;;;;5140480;27;8806;-74
2022/08/22 20:51:10;;;;;;;;;6.50;4.00;;;;;;;;5122022;27;13536;-74
2022/08/22 20:53:36;;;;;;;;;4.00;4.00;;;;;;;;5140921;27;11378;-74
2022/08/22 20:56:02;;;;;;;;;3.33;3.33;;;;;;;;5140930;27;8794;-74
2022/08/22 20:58:35;;;;;;;;;3.67;3.33;;;;;;;;5140590;27;11463;-74
2022/08/22 21:01:00;;;;;;;;;4.50;4.50;;;;;;;;5140322;27;8786;-73
2022/08/22 21:03:44;;;;;;;;;2.00;2.00;;;;;;;;5140784;27;11319;-74
2022/08/22 21:06:17;;;;;;;;;4.00;4.00;;;;;;;;5139563;27;11443;-73
2022/08/22 21:08:43;;;;;;;;;3.75;3.75;;;;;;;;5121586;27;9428;-74
2022/08/22 21:13:53;;;;;;;;;4.50;4.25;;;;;;;;5140552;27;11321;-69
2022/08/22 21:16:30;;;;;;;;;7.00;7.00;;;;;;;;5139899;27;11503;-72
2022/08/22 21:18:56;;;;;;;;;4.50;3.75;;;;;;;;5132959;27;12692;-74
2022/08/22 21:21:26;;;;;;;;;4.00;4.00;;;;;;;;5121680;27;11310;-73
2022/08/22 21:23:53;;;;;;;;;4.25;3.25;;;;;;;;5119297;28;10960;-73
2022/08/22 21:26:18;;;;;;;;;4.75;3.75;;;;;;;;5119540;28;11513;-73
2022/08/22 21:28:55;;;;;;;;;3.00;3.00;;;;;;;;5100974;28;9657;-73
2022/08/22 21:31:22;;;;;;;;;3.25;3.00;;;;;;;;5118233;28;12620;-72
